sensor_id;sensor_type;location;lat;lon;timestamp;temperature;humidity
26342;DHT22;14054;50.108;8.640;2024-01-30T00:01:06;4.00;99.90
26342;DHT22;14054;50.108;8.640;2024-01-30T00:03:32;4.00;99.90
26342;DHT22;14054;50.108;8.640;2024-01-30T00:05:57;4.00;99.90
26342;DHT22;14054;50.108;8.640;2024-01-30T00:08:23;4.00;99.90
26342;DHT22;14054;50.108;8.640;2024-01-30T00:10:49;3.90;99.90
26342;DHT22;14054;50.108;8.640;2024-01-30T00:13:14;3.90;99.90
26342;DHT22;14054;50.108;8.640;2024-01-30T00:15:42;3.90;99.90
26342;DHT22;14054;50.108;8.640;2024-01-30T00:18:08;3.90;99.90
26342;DHT22;14054;50.108;8.640;2024-01-30T00:20:33;3.80;99.90
26342;DHT22;14054;50.108;8.640;2024-01-30T00:22:59;3.80;99.90
26342;DHT22;14054;50.108;8.640;2024-01-30T00:25:24;3.80;99.90
26342;DHT22;14054;50.108;8.640;2024-01-30T00:27:50;3.80;99.90
26342;DHT22;14054;50.108;8.640;2024-01-30T00:30:15;3.70;99.90
26342;DHT22;14054;50.108;8.640;2024-01-30T00:32:41;3.70;99.90
26342;DHT22;14054;50.108;8.640;2024-01-30T00:35:06;3.70;99.90
26342;DHT22;14054;50.108;8.640;2024-01-30T00:37:32;3.60;99.90
26342;DHT22;14054;50.108;8.640;2024-01-30T00:39:58;3.60;99.90
26342;DHT22;14054;50.108;8.640;2024-01-30T00:42:24;3.60;99.90
26342;DHT22;14054;50.108;8.640;2024-01-30T00:44:50;3.60;99.90
26342;DHT22;14054;50.108;8.640;2024-01-30T00:47:16;3.60;99.90
26342;DHT22;14054;50.108;8.640;2024-01-30T00:49:41;3.50;99.90
26342;DHT22;14054;50.108;8.640;2024-01-30T00:52:07;3.50;99.90
26342;DHT22;14054;50.108;8.640;2024-01-30T00:54:32;3.50;99.90
26342;DHT22;14054;50.108;8.640;2024-01-30T00:56:58;3.50;99.90
26342;DHT22;14054;50.108;8.640;2024-01-30T00:59:23;3.50;99.90
26342;DHT22;14054;50.108;8.640;2024-01-30T01:01:48;3.40;99.90
26342;DHT22;14054;50.108;8.640;2024-01-30T01:04:14;3.40;99.90
26342;DHT22;14054;50.108;8.640;2024-01-30T01:06:39;3.40;99.90
26342;DHT22;14054;50.108;8.640;2024-01-30T01:09:08;3.40;99.90
26342;DHT22;14054;50.108;8.640;2024-01-30T01:11:33;3.40;99.90
26342;DHT22;14054;50.108;8.640;2024-01-30T01:13:58;3.40;99.90
26342;DHT22;14054;50.108;8.640;2024-01-30T01:16:24;3.40;99.90
26342;DHT22;14054;50.108;8.640;2024-01-30T01:18:49;3.40;99.90
26342;DHT22;14054;50.108;8.640;2024-01-30T01:21:15;3.40;99.90
26342;DHT22;14054;50.108;8.640;2024-01-30T01:23:40;3.40;99.90
26342;DHT22;14054;50.108;8.640;2024-01-30T01:26:07;3.40;99.90
26342;DHT22;14054;50.108;8.640;2024-01-30T01:28:35;3.40;99.90
26342;DHT22;14054;50.108;8.640;2024-01-30T01:31:00;3.40;99.90
26342;DHT22;14054;50.108;8.640;2024-01-30T01:33:33;3.30;99.90
26342;DHT22;14054;50.108;8.640;2024-01-30T01:35:59;3.30;99.90
26342;DHT22;14054;50.108;8.640;2024-01-30T01:38:27;3.30;99.90
26342;DHT22;14054;50.108;8.640;2024-01-30T01:40:53;3.20;99.90
26342;DHT22;14054;50.108;8.640;2024-01-30T01:43:18;3.20;99.90
26342;DHT22;14054;50.108;8.640;2024-01-30T01:45:45;3.20;99.90
26342;DHT22;14054;50.108;8.640;2024-01-30T01:48:10;3.20;99.90
26342;DHT22;14054;50.108;8.640;2024-01-30T01:50:37;3.20;99.90
26342;DHT22;14054;50.108;8.640;2024-01-30T01:53:03;3.20;99.90
26342;DHT22;14054;50.108;8.640;2024-01-30T01:55:29;3.20;99.90
26342;DHT22;14054;50.108;8.640;2024-01-30T01:57:55;3.20;99.90
26342;DHT22;14054;50.108;8.640;2024-01-30T02:00:21;3.20;99.90
26342;DHT22;14054;50.108;8.640;2024-01-30T02:02:47;3.10;99.90
26342;DHT22;14054;50.108;8.640;2024-01-30T02:05:13;3.10;99.90
26342;DHT22;14054;50.108;8.640;2024-01-30T02:07:38;3.10;99.90
26342;DHT22;14054;50.108;8.640;2024-01-30T02:10:04;3.10;99.90
26342;DHT22;14054;50.108;8.640;2024-01-30T02:12:30;3.10;99.90
26342;DHT22;14054;50.108;8.640;2024-01-30T02:14:56;3.10;99.90
26342;DHT22;14054;50.108;8.640;2024-01-30T02:17:21;3.00;99.90
26342;DHT22;14054;50.108;8.640;2024-01-30T02:19:48;3.00;99.90
26342;DHT22;14054;50.108;8.640;2024-01-30T02:22:14;3.00;99.90
26342;DHT22;14054;50.108;8.640;2024-01-30T02:24:40;3.00;99.90
26342;DHT22;14054;50.108;8.640;2024-01-30T02:27:05;3.00;99.90
26342;DHT22;14054;50.108;8.640;2024-01-30T02:29:31;3.00;99.90
26342;DHT22;14054;50.108;8.640;2024-01-30T02:31:56;3.00;99.90
26342;DHT22;14054;50.108;8.640;2024-01-30T02:34:23;3.00;99.90
26342;DHT22;14054;50.108;8.640;2024-01-30T02:36:48;3.00;99.90
26342;DHT22;14054;50.108;8.640;2024-01-30T02:39:14;3.00;99.90
26342;DHT22;14054;50.108;8.640;2024-01-30T02:41:39;3.00;99.90
26342;DHT22;14054;50.108;8.640;2024-01-30T02:44:05;2.90;99.90
26342;DHT22;14054;50.108;8.640;2024-01-30T02:46:30;2.90;99.90
26342;DHT22;14054;50.108;8.640;2024-01-30T02:48:56;2.90;99.90
26342;DHT22;14054;50.108;8.640;2024-01-30T02:51:21;2.90;99.90
26342;DHT22;14054;50.108;8.640;2024-01-30T02:53:47;2.90;99.90
26342;DHT22;14054;50.108;8.640;2024-01-30T02:56:13;2.80;99.90
26342;DHT22;14054;50.108;8.640;2024-01-30T02:58:39;2.80;99.90
26342;DHT22;14054;50.108;8.640;2024-01-30T03:01:06;2.80;99.90
26342;DHT22;14054;50.108;8.640;2024-01-30T03:03:31;2.70;99.90
26342;DHT22;14054;50.108;8.640;2024-01-30T03:05:57;2.70;99.90
26342;DHT22;14054;50.108;8.640;2024-01-30T03:08:22;2.70;99.90
26342;DHT22;14054;50.108;8.640;2024-01-30T03:10:48;2.70;99.90
26342;DHT22;14054;50.108;8.640;2024-01-30T03:13:14;2.70;99.90
26342;DHT22;14054;50.108;8.640;2024-01-30T03:15:39;2.70;99.90
26342;DHT22;14054;50.108;8.640;2024-01-30T03:18:05;2.70;99.90
26342;DHT22;14054;50.108;8.640;2024-01-30T03:20:30;2.70;99.90
26342;DHT22;14054;50.108;8.640;2024-01-30T03:22:56;2.70;99.90
26342;DHT22;14054;50.108;8.640;2024-01-30T03:25:22;2.70;99.90
26342;DHT22;14054;50.108;8.640;2024-01-30T03:27:48;2.70;99.90
26342;DHT22;14054;50.108;8.640;2024-01-30T03:30:14;2.70;99.90
26342;DHT22;14054;50.108;8.640;2024-01-30T03:32:39;2.70;99.90
26342;DHT22;14054;50.108;8.640;2024-01-30T03:35:05;2.70;99.90
26342;DHT22;14054;50.108;8.640;2024-01-30T03:37:30;2.70;99.90
26342;DHT22;14054;50.108;8.640;2024-01-30T03:39:57;2.70;99.90
26342;DHT22;14054;50.108;8.640;2024-01-30T03:42:22;2.70;99.90
26342;DHT22;14054;50.108;8.640;2024-01-30T03:44:48;2.70;99.90
26342;DHT22;14054;50.108;8.640;2024-01-30T03:47:13;2.60;99.90
26342;DHT22;14054;50.108;8.640;2024-01-30T03:49:39;2.70;99.90
26342;DHT22;14054;50.108;8.640;2024-01-30T03:52:05;2.80;99.90
26342;DHT22;14054;50.108;8.640;2024-01-30T03:54:30;2.70;99.90
26342;DHT22;14054;50.108;8.640;2024-01-30T03:56:56;2.70;99.90
26342;DHT22;14054;50.108;8.640;2024-01-30T03:59:21;2.70;99.90
26342;DHT22;14054;50.108;8.640;2024-01-30T04:01:50;2.70;99.90
26342;DHT22;14054;50.108;8.640;2024-01-30T04:04:16;2.70;99.90
26342;DHT22;14054;50.108;8.640;2024-01-30T04:06:42;2.70;99.90
26342;DHT22;14054;50.108;8.640;2024-01-30T04:09:07;2.70;99.90
26342;DHT22;14054;50.108;8.640;2024-01-30T04:11:33;2.80;99.90
26342;DHT22;14054;50.108;8.640;2024-01-30T04:13:58;2.80;99.90
26342;DHT22;14054;50.108;8.640;2024-01-30T04:16:24;2.80;99.90
26342;DHT22;14054;50.108;8.640;2024-01-30T04:18:51;2.80;99.90
26342;DHT22;14054;50.108;8.640;2024-01-30T04:21:16;2.80;99.90
26342;DHT22;14054;50.108;8.640;2024-01-30T04:23:42;2.80;99.90
26342;DHT22;14054;50.108;8.640;2024-01-30T04:26:07;2.80;99.90
26342;DHT22;14054;50.108;8.640;2024-01-30T04:28:33;2.80;99.90
26342;DHT22;14054;50.108;8.640;2024-01-30T04:30:58;2.80;99.90
26342;DHT22;14054;50.108;8.640;2024-01-30T04:33:24;2.70;99.90
26342;DHT22;14054;50.108;8.640;2024-01-30T04:35:49;2.70;99.90
26342;DHT22;14054;50.108;8.640;2024-01-30T04:38:15;2.80;99.90
26342;DHT22;14054;50.108;8.640;2024-01-30T04:40:40;2.80;99.90
26342;DHT22;14054;50.108;8.640;2024-01-30T04:43:06;2.80;99.90
26342;DHT22;14054;50.108;8.640;2024-01-30T04:45:31;2.70;99.90
26342;DHT22;14054;50.108;8.640;2024-01-30T04:47:57;2.70;99.90
26342;DHT22;14054;50.108;8.640;2024-01-30T04:50:23;2.70;99.90
26342;DHT22;14054;50.108;8.640;2024-01-30T04:52:49;2.60;99.90
26342;DHT22;14054;50.108;8.640;2024-01-30T04:55:14;2.60;99.90
26342;DHT22;14054;50.108;8.640;2024-01-30T04:57:40;2.60;99.90
26342;DHT22;14054;50.108;8.640;2024-01-30T05:00:06;2.60;99.90
26342;DHT22;14054;50.108;8.640;2024-01-30T05:02:32;2.70;99.90
26342;DHT22;14054;50.108;8.640;2024-01-30T05:04:57;2.60;99.90
26342;DHT22;14054;50.108;8.640;2024-01-30T05:07:24;2.60;99.90
26342;DHT22;14054;50.108;8.640;2024-01-30T05:09:50;2.60;99.90
26342;DHT22;14054;50.108;8.640;2024-01-30T05:12:15;2.60;99.90
26342;DHT22;14054;50.108;8.640;2024-01-30T05:14:41;2.60;99.90
26342;DHT22;14054;50.108;8.640;2024-01-30T05:17:06;2.60;99.90
26342;DHT22;14054;50.108;8.640;2024-01-30T05:19:34;2.60;99.90
26342;DHT22;14054;50.108;8.640;2024-01-30T05:22:00;2.60;99.90
26342;DHT22;14054;50.108;8.640;2024-01-30T05:24:25;2.60;99.90
26342;DHT22;14054;50.108;8.640;2024-01-30T05:26:51;2.60;99.90
26342;DHT22;14054;50.108;8.640;2024-01-30T05:29:16;2.60;99.90
26342;DHT22;14054;50.108;8.640;2024-01-30T05:31:42;2.50;99.90
26342;DHT22;14054;50.108;8.640;2024-01-30T05:34:07;2.50;99.90
26342;DHT22;14054;50.108;8.640;2024-01-30T05:36:34;2.50;99.90
26342;DHT22;14054;50.108;8.640;2024-01-30T05:38:59;2.50;99.90
26342;DHT22;14054;50.108;8.640;2024-01-30T05:41:25;2.50;99.90
26342;DHT22;14054;50.108;8.640;2024-01-30T05:43:50;2.50;99.90
26342;DHT22;14054;50.108;8.640;2024-01-30T05:46:16;2.50;99.90
26342;DHT22;14054;50.108;8.640;2024-01-30T05:48:41;2.50;99.90
26342;DHT22;14054;50.108;8.640;2024-01-30T05:51:08;2.50;99.90
26342;DHT22;14054;50.108;8.640;2024-01-30T05:53:34;2.50;99.90
26342;DHT22;14054;50.108;8.640;2024-01-30T05:56:02;2.50;99.90
26342;DHT22;14054;50.108;8.640;2024-01-30T05:58:27;2.40;99.90
26342;DHT22;14054;50.108;8.640;2024-01-30T06:00:53;2.40;99.90
26342;DHT22;14054;50.108;8.640;2024-01-30T06:03:18;2.50;99.90
26342;DHT22;14054;50.108;8.640;2024-01-30T06:05:44;2.40;99.90
26342;DHT22;14054;50.108;8.640;2024-01-30T06:08:09;2.40;99.90
26342;DHT22;14054;50.108;8.640;2024-01-30T06:10:35;2.40;99.90
26342;DHT22;14054;50.108;8.640;2024-01-30T06:13:00;2.40;99.90
26342;DHT22;14054;50.108;8.640;2024-01-30T06:15:26;2.40;99.90
26342;DHT22;14054;50.108;8.640;2024-01-30T06:17:51;2.40;99.90
26342;DHT22;14054;50.108;8.640;2024-01-30T06:20:17;2.40;99.90
26342;DHT22;14054;50.108;8.640;2024-01-30T06:22:43;2.40;99.90
26342;DHT22;14054;50.108;8.640;2024-01-30T06:25:08;2.40;99.90
26342;DHT22;14054;50.108;8.640;2024-01-30T06:27:34;2.40;99.90
26342;DHT22;14054;50.108;8.640;2024-01-30T06:30:00;2.40;99.90
26342;DHT22;14054;50.108;8.640;2024-01-30T06:32:26;2.40;99.90
26342;DHT22;14054;50.108;8.640;2024-01-30T06:34:52;2.40;99.90
26342;DHT22;14054;50.108;8.640;2024-01-30T06:37:18;2.30;99.90
26342;DHT22;14054;50.108;8.640;2024-01-30T06:39:43;2.30;99.90
26342;DHT22;14054;50.108;8.640;2024-01-30T06:42:09;2.30;99.90
26342;DHT22;14054;50.108;8.640;2024-01-30T06:44:34;2.30;99.90
26342;DHT22;14054;50.108;8.640;2024-01-30T06:47:00;2.30;99.90
26342;DHT22;14054;50.108;8.640;2024-01-30T06:49:26;2.40;99.90
26342;DHT22;14054;50.108;8.640;2024-01-30T06:51:52;2.30;99.90
26342;DHT22;14054;50.108;8.640;2024-01-30T06:54:17;2.40;99.90
26342;DHT22;14054;50.108;8.640;2024-01-30T06:56:43;2.40;99.90
26342;DHT22;14054;50.108;8.640;2024-01-30T06:59:08;2.40;99.90
26342;DHT22;14054;50.108;8.640;2024-01-30T07:01:34;2.40;99.90
26342;DHT22;14054;50.108;8.640;2024-01-30T07:03:59;2.40;99.90
26342;DHT22;14054;50.108;8.640;2024-01-30T07:06:25;2.40;99.90
26342;DHT22;14054;50.108;8.640;2024-01-30T07:08:50;2.40;99.90
26342;DHT22;14054;50.108;8.640;2024-01-30T07:11:20;2.40;99.90
26342;DHT22;14054;50.108;8.640;2024-01-30T07:13:47;2.40;99.90
26342;DHT22;14054;50.108;8.640;2024-01-30T07:16:14;2.40;99.90
26342;DHT22;14054;50.108;8.640;2024-01-30T07:18:39;2.40;99.90
26342;DHT22;14054;50.108;8.640;2024-01-30T07:21:05;2.40;99.90
26342;DHT22;14054;50.108;8.640;2024-01-30T07:23:30;2.50;99.90
26342;DHT22;14054;50.108;8.640;2024-01-30T07:25:56;2.50;99.90
26342;DHT22;14054;50.108;8.640;2024-01-30T07:28:21;2.50;99.90
26342;DHT22;14054;50.108;8.640;2024-01-30T07:30:47;2.50;99.90
26342;DHT22;14054;50.108;8.640;2024-01-30T07:33:13;2.50;99.90
26342;DHT22;14054;50.108;8.640;2024-01-30T07:35:39;2.50;99.90
26342;DHT22;14054;50.108;8.640;2024-01-30T07:38:04;2.60;99.90
26342;DHT22;14054;50.108;8.640;2024-01-30T07:40:30;2.70;99.90
26342;DHT22;14054;50.108;8.640;2024-01-30T07:42:55;2.80;99.90
26342;DHT22;14054;50.108;8.640;2024-01-30T07:45:21;2.80;99.90
26342;DHT22;14054;50.108;8.640;2024-01-30T07:47:49;2.80;99.90
26342;DHT22;14054;50.108;8.640;2024-01-30T07:50:15;2.80;99.90
26342;DHT22;14054;50.108;8.640;2024-01-30T07:52:40;2.80;99.90
26342;DHT22;14054;50.108;8.640;2024-01-30T07:55:06;2.90;99.90
26342;DHT22;14054;50.108;8.640;2024-01-30T07:57:33;2.80;99.90
26342;DHT22;14054;50.108;8.640;2024-01-30T07:59:59;2.90;99.90
26342;DHT22;14054;50.108;8.640;2024-01-30T08:02:25;2.80;99.90
26342;DHT22;14054;50.108;8.640;2024-01-30T08:04:51;2.90;99.90
26342;DHT22;14054;50.108;8.640;2024-01-30T08:07:16;2.90;99.90
26342;DHT22;14054;50.108;8.640;2024-01-30T08:09:44;3.00;99.90
26342;DHT22;14054;50.108;8.640;2024-01-30T08:12:09;3.00;99.90
26342;DHT22;14054;50.108;8.640;2024-01-30T08:14:35;3.00;99.90
26342;DHT22;14054;50.108;8.640;2024-01-30T08:17:00;3.10;99.90
26342;DHT22;14054;50.108;8.640;2024-01-30T08:19:26;3.10;99.90
26342;DHT22;14054;50.108;8.640;2024-01-30T08:21:51;3.20;99.90
26342;DHT22;14054;50.108;8.640;2024-01-30T08:24:17;3.30;99.90
26342;DHT22;14054;50.108;8.640;2024-01-30T08:26:42;3.40;99.90
26342;DHT22;14054;50.108;8.640;2024-01-30T08:29:08;3.50;99.90
26342;DHT22;14054;50.108;8.640;2024-01-30T08:31:33;3.50;99.90
26342;DHT22;14054;50.108;8.640;2024-01-30T08:33:59;3.60;99.90
26342;DHT22;14054;50.108;8.640;2024-01-30T08:36:25;3.70;99.90
26342;DHT22;14054;50.108;8.640;2024-01-30T08:38:50;3.80;99.90
26342;DHT22;14054;50.108;8.640;2024-01-30T08:41:16;3.90;99.90
26342;DHT22;14054;50.108;8.640;2024-01-30T08:43:41;4.00;99.90
26342;DHT22;14054;50.108;8.640;2024-01-30T08:46:07;4.10;99.90
26342;DHT22;14054;50.108;8.640;2024-01-30T08:48:32;4.20;99.90
26342;DHT22;14054;50.108;8.640;2024-01-30T08:50:58;4.10;99.90
26342;DHT22;14054;50.108;8.640;2024-01-30T08:53:23;4.30;99.90
26342;DHT22;14054;50.108;8.640;2024-01-30T08:55:49;4.30;99.90
26342;DHT22;14054;50.108;8.640;2024-01-30T08:58:15;4.40;99.90
26342;DHT22;14054;50.108;8.640;2024-01-30T09:00:43;4.50;99.90
26342;DHT22;14054;50.108;8.640;2024-01-30T09:03:09;4.50;99.90
26342;DHT22;14054;50.108;8.640;2024-01-30T09:05:34;4.60;99.90
26342;DHT22;14054;50.108;8.640;2024-01-30T09:08:00;4.60;99.90
26342;DHT22;14054;50.108;8.640;2024-01-30T09:10:25;4.60;99.90
26342;DHT22;14054;50.108;8.640;2024-01-30T09:12:50;4.60;99.90
26342;DHT22;14054;50.108;8.640;2024-01-30T09:15:16;4.70;99.90
26342;DHT22;14054;50.108;8.640;2024-01-30T09:17:41;4.60;99.90
26342;DHT22;14054;50.108;8.640;2024-01-30T09:20:07;4.60;99.90
26342;DHT22;14054;50.108;8.640;2024-01-30T09:22:34;4.60;99.90
26342;DHT22;14054;50.108;8.640;2024-01-30T09:24:59;4.70;99.90
26342;DHT22;14054;50.108;8.640;2024-01-30T09:27:25;4.70;99.90
26342;DHT22;14054;50.108;8.640;2024-01-30T09:29:51;4.70;99.90
26342;DHT22;14054;50.108;8.640;2024-01-30T09:32:16;4.70;99.90
26342;DHT22;14054;50.108;8.640;2024-01-30T09:34:43;4.70;99.90
26342;DHT22;14054;50.108;8.640;2024-01-30T09:37:08;4.70;99.90
26342;DHT22;14054;50.108;8.640;2024-01-30T09:39:34;4.70;99.90
26342;DHT22;14054;50.108;8.640;2024-01-30T09:42:09;4.80;99.90
26342;DHT22;14054;50.108;8.640;2024-01-30T09:44:38;4.80;99.90
26342;DHT22;14054;50.108;8.640;2024-01-30T09:47:03;4.90;99.90
26342;DHT22;14054;50.108;8.640;2024-01-30T09:49:34;5.00;99.90
26342;DHT22;14054;50.108;8.640;2024-01-30T09:52:02;5.00;99.90
26342;DHT22;14054;50.108;8.640;2024-01-30T09:54:31;5.20;99.90
26342;DHT22;14054;50.108;8.640;2024-01-30T09:56:57;5.30;99.90
26342;DHT22;14054;50.108;8.640;2024-01-30T09:59:23;5.30;99.90
26342;DHT22;14054;50.108;8.640;2024-01-30T10:01:50;5.40;99.90
26342;DHT22;14054;50.108;8.640;2024-01-30T10:04:15;5.40;99.90
26342;DHT22;14054;50.108;8.640;2024-01-30T10:06:41;5.40;99.90
26342;DHT22;14054;50.108;8.640;2024-01-30T10:09:07;5.40;99.90
26342;DHT22;14054;50.108;8.640;2024-01-30T10:11:33;5.40;99.90
26342;DHT22;14054;50.108;8.640;2024-01-30T10:14:00;5.50;99.90
26342;DHT22;14054;50.108;8.640;2024-01-30T10:16:25;5.50;99.90
26342;DHT22;14054;50.108;8.640;2024-01-30T10:18:51;5.50;99.90
26342;DHT22;14054;50.108;8.640;2024-01-30T10:21:16;5.50;99.90
26342;DHT22;14054;50.108;8.640;2024-01-30T10:23:43;5.70;99.90
26342;DHT22;14054;50.108;8.640;2024-01-30T10:26:10;5.80;99.90
26342;DHT22;14054;50.108;8.640;2024-01-30T10:28:36;5.80;99.90
26342;DHT22;14054;50.108;8.640;2024-01-30T10:31:02;5.80;99.90
26342;DHT22;14054;50.108;8.640;2024-01-30T10:33:29;5.90;99.90
26342;DHT22;14054;50.108;8.640;2024-01-30T10:36:01;5.90;99.90
26342;DHT22;14054;50.108;8.640;2024-01-30T10:38:29;5.90;99.90
26342;DHT22;14054;50.108;8.640;2024-01-30T10:40:59;6.00;99.90
26342;DHT22;14054;50.108;8.640;2024-01-30T10:43:31;6.10;99.90
26342;DHT22;14054;50.108;8.640;2024-01-30T10:46:11;6.00;99.90
26342;DHT22;14054;50.108;8.640;2024-01-30T10:48:42;6.10;99.90
26342;DHT22;14054;50.108;8.640;2024-01-30T10:51:10;6.10;99.90
26342;DHT22;14054;50.108;8.640;2024-01-30T10:53:36;6.20;99.90
26342;DHT22;14054;50.108;8.640;2024-01-30T10:56:03;6.40;99.90
26342;DHT22;14054;50.108;8.640;2024-01-30T10:58:29;6.50;99.90
26342;DHT22;14054;50.108;8.640;2024-01-30T11:00:55;6.60;99.90
26342;DHT22;14054;50.108;8.640;2024-01-30T11:03:21;6.90;99.90
26342;DHT22;14054;50.108;8.640;2024-01-30T11:05:50;7.10;99.90
26342;DHT22;14054;50.108;8.640;2024-01-30T11:08:25;7.10;99.90
26342;DHT22;14054;50.108;8.640;2024-01-30T11:10:56;7.00;99.90
26342;DHT22;14054;50.108;8.640;2024-01-30T11:13:22;7.10;99.90
26342;DHT22;14054;50.108;8.640;2024-01-30T11:15:51;7.20;99.90
26342;DHT22;14054;50.108;8.640;2024-01-30T11:18:26;7.40;99.90
26342;DHT22;14054;50.108;8.640;2024-01-30T11:20:56;7.40;99.90
26342;DHT22;14054;50.108;8.640;2024-01-30T11:23:22;7.40;99.90
26342;DHT22;14054;50.108;8.640;2024-01-30T11:25:48;7.70;99.90
26342;DHT22;14054;50.108;8.640;2024-01-30T11:28:14;8.20;99.90
26342;DHT22;14054;50.108;8.640;2024-01-30T11:30:44;8.30;99.90
26342;DHT22;14054;50.108;8.640;2024-01-30T11:33:11;8.40;99.90
26342;DHT22;14054;50.108;8.640;2024-01-30T11:35:40;8.40;99.90
26342;DHT22;14054;50.108;8.640;2024-01-30T11:38:08;8.90;99.90
26342;DHT22;14054;50.108;8.640;2024-01-30T11:40:34;9.70;99.90
26342;DHT22;14054;50.108;8.640;2024-01-30T11:43:01;10.10;99.90
26342;DHT22;14054;50.108;8.640;2024-01-30T11:45:28;10.20;99.90
26342;DHT22;14054;50.108;8.640;2024-01-30T11:47:54;10.20;99.90
26342;DHT22;14054;50.108;8.640;2024-01-30T11:50:20;10.60;99.90
26342;DHT22;14054;50.108;8.640;2024-01-30T11:52:46;10.70;99.90
26342;DHT22;14054;50.108;8.640;2024-01-30T11:55:13;10.90;99.90
26342;DHT22;14054;50.108;8.640;2024-01-30T11:57:38;10.30;99.90
26342;DHT22;14054;50.108;8.640;2024-01-30T12:00:06;10.10;99.90
26342;DHT22;14054;50.108;8.640;2024-01-30T12:02:41;9.50;99.90
26342;DHT22;14054;50.108;8.640;2024-01-30T12:05:07;9.30;99.90
26342;DHT22;14054;50.108;8.640;2024-01-30T12:07:33;9.10;99.90
26342;DHT22;14054;50.108;8.640;2024-01-30T12:09:59;9.00;99.90
26342;DHT22;14054;50.108;8.640;2024-01-30T12:12:28;8.80;99.90
26342;DHT22;14054;50.108;8.640;2024-01-30T12:14:55;8.70;99.90
26342;DHT22;14054;50.108;8.640;2024-01-30T12:17:31;8.70;99.90
26342;DHT22;14054;50.108;8.640;2024-01-30T12:20:08;8.70;99.90
26342;DHT22;14054;50.108;8.640;2024-01-30T12:22:42;8.60;99.90
26342;DHT22;14054;50.108;8.640;2024-01-30T12:25:12;8.60;99.90
26342;DHT22;14054;50.108;8.640;2024-01-30T12:27:39;8.60;99.90
26342;DHT22;14054;50.108;8.640;2024-01-30T12:30:08;8.60;99.90
26342;DHT22;14054;50.108;8.640;2024-01-30T12:32:44;8.70;99.90
26342;DHT22;14054;50.108;8.640;2024-01-30T12:35:11;8.80;99.90
26342;DHT22;14054;50.108;8.640;2024-01-30T12:37:38;8.90;99.90
26342;DHT22;14054;50.108;8.640;2024-01-30T12:40:04;8.90;99.90
26342;DHT22;14054;50.108;8.640;2024-01-30T12:42:29;8.90;99.90
26342;DHT22;14054;50.108;8.640;2024-01-30T12:44:57;9.00;99.90
26342;DHT22;14054;50.108;8.640;2024-01-30T12:47:24;9.20;99.90
26342;DHT22;14054;50.108;8.640;2024-01-30T12:49:49;9.20;99.90
26342;DHT22;14054;50.108;8.640;2024-01-30T12:52:18;9.20;99.90
26342;DHT22;14054;50.108;8.640;2024-01-30T12:54:44;9.30;99.90
26342;DHT22;14054;50.108;8.640;2024-01-30T12:57:10;9.30;99.90
26342;DHT22;14054;50.108;8.640;2024-01-30T12:59:35;9.40;99.90
26342;DHT22;14054;50.108;8.640;2024-01-30T13:02:01;9.40;99.90
26342;DHT22;14054;50.108;8.640;2024-01-30T13:04:27;9.50;99.90
26342;DHT22;14054;50.108;8.640;2024-01-30T13:06:53;9.60;99.90
26342;DHT22;14054;50.108;8.640;2024-01-30T13:09:18;9.60;99.90
26342;DHT22;14054;50.108;8.640;2024-01-30T13:11:44;9.50;99.90
26342;DHT22;14054;50.108;8.640;2024-01-30T13:14:09;10.10;99.90
26342;DHT22;14054;50.108;8.640;2024-01-30T13:16:35;10.40;99.90
26342;DHT22;14054;50.108;8.640;2024-01-30T13:19:00;11.40;99.90
26342;DHT22;14054;50.108;8.640;2024-01-30T13:21:27;11.40;99.90
26342;DHT22;14054;50.108;8.640;2024-01-30T13:23:53;11.20;99.90
26342;DHT22;14054;50.108;8.640;2024-01-30T13:26:22;11.10;99.90
26342;DHT22;14054;50.108;8.640;2024-01-30T13:28:48;10.90;99.90
26342;DHT22;14054;50.108;8.640;2024-01-30T13:31:14;10.50;99.90
26342;DHT22;14054;50.108;8.640;2024-01-30T13:33:40;10.30;99.90
26342;DHT22;14054;50.108;8.640;2024-01-30T13:36:07;10.00;99.90
26342;DHT22;14054;50.108;8.640;2024-01-30T13:38:32;9.90;99.90
26342;DHT22;14054;50.108;8.640;2024-01-30T13:40:59;9.70;99.90
26342;DHT22;14054;50.108;8.640;2024-01-30T13:43:24;9.50;99.90
26342;DHT22;14054;50.108;8.640;2024-01-30T13:45:50;9.30;99.90
26342;DHT22;14054;50.108;8.640;2024-01-30T13:48:15;9.40;99.90
26342;DHT22;14054;50.108;8.640;2024-01-30T13:50:40;9.50;99.90
26342;DHT22;14054;50.108;8.640;2024-01-30T13:53:06;9.40;99.90
26342;DHT22;14054;50.108;8.640;2024-01-30T13:55:32;9.50;99.90
26342;DHT22;14054;50.108;8.640;2024-01-30T13:57:57;9.50;99.90
26342;DHT22;14054;50.108;8.640;2024-01-30T14:00:23;9.50;99.90
26342;DHT22;14054;50.108;8.640;2024-01-30T14:02:50;9.40;99.90
26342;DHT22;14054;50.108;8.640;2024-01-30T14:05:16;9.30;99.90
26342;DHT22;14054;50.108;8.640;2024-01-30T14:07:43;9.30;99.90
26342;DHT22;14054;50.108;8.640;2024-01-30T14:10:10;9.30;99.90
26342;DHT22;14054;50.108;8.640;2024-01-30T14:12:38;9.30;99.90
26342;DHT22;14054;50.108;8.640;2024-01-30T14:15:04;9.30;99.90
26342;DHT22;14054;50.108;8.640;2024-01-30T14:17:29;9.30;99.90
26342;DHT22;14054;50.108;8.640;2024-01-30T14:19:55;9.20;99.90
26342;DHT22;14054;50.108;8.640;2024-01-30T14:22:20;9.00;99.90
26342;DHT22;14054;50.108;8.640;2024-01-30T14:24:46;9.10;99.90
26342;DHT22;14054;50.108;8.640;2024-01-30T14:27:12;9.00;99.90
26342;DHT22;14054;50.108;8.640;2024-01-30T14:29:37;8.90;99.90
26342;DHT22;14054;50.108;8.640;2024-01-30T14:32:03;8.90;99.90
26342;DHT22;14054;50.108;8.640;2024-01-30T14:34:29;8.90;99.90
26342;DHT22;14054;50.108;8.640;2024-01-30T14:36:55;8.80;99.90
26342;DHT22;14054;50.108;8.640;2024-01-30T14:39:20;8.70;99.90
26342;DHT22;14054;50.108;8.640;2024-01-30T14:41:46;8.70;99.90
26342;DHT22;14054;50.108;8.640;2024-01-30T14:44:11;8.60;99.90
26342;DHT22;14054;50.108;8.640;2024-01-30T14:46:37;8.60;99.90
26342;DHT22;14054;50.108;8.640;2024-01-30T14:49:03;8.50;99.90
26342;DHT22;14054;50.108;8.640;2024-01-30T14:51:31;8.50;99.90
26342;DHT22;14054;50.108;8.640;2024-01-30T14:53:56;8.40;99.90
26342;DHT22;14054;50.108;8.640;2024-01-30T14:56:22;8.40;99.90
26342;DHT22;14054;50.108;8.640;2024-01-30T14:58:48;8.40;99.90
26342;DHT22;14054;50.108;8.640;2024-01-30T15:01:14;8.30;99.90
26342;DHT22;14054;50.108;8.640;2024-01-30T15:03:39;8.30;99.90
26342;DHT22;14054;50.108;8.640;2024-01-30T15:06:06;8.30;99.90
26342;DHT22;14054;50.108;8.640;2024-01-30T15:08:31;8.20;99.90
26342;DHT22;14054;50.108;8.640;2024-01-30T15:10:58;8.10;99.90
26342;DHT22;14054;50.108;8.640;2024-01-30T15:13:23;8.10;99.90
26342;DHT22;14054;50.108;8.640;2024-01-30T15:15:49;8.00;99.90
26342;DHT22;14054;50.108;8.640;2024-01-30T15:18:14;8.10;99.90
26342;DHT22;14054;50.108;8.640;2024-01-30T15:20:40;8.00;99.90
26342;DHT22;14054;50.108;8.640;2024-01-30T15:23:05;8.00;99.90
26342;DHT22;14054;50.108;8.640;2024-01-30T15:25:31;7.90;99.90
26342;DHT22;14054;50.108;8.640;2024-01-30T15:27:56;7.90;99.90
26342;DHT22;14054;50.108;8.640;2024-01-30T15:30:22;7.80;99.90
26342;DHT22;14054;50.108;8.640;2024-01-30T15:32:48;7.80;99.90
26342;DHT22;14054;50.108;8.640;2024-01-30T15:35:14;7.80;99.90
26342;DHT22;14054;50.108;8.640;2024-01-30T15:37:39;7.80;99.90